Time;durP1;ratioP1;P1;durP2;ratioP2;P2;SDS_P1;SDS_P2;PMS_P1;PMS_P2;Temp;Humidity;BMP_temperature;BMP_pressure;BME280_temperature;BME280_humidity;BME280_pressure;Samples;Min_cycle;Max_cycle;Signal;HPM_P1;HPM_P2
2022/10/28 00:01:32;;;;;;;;;50.50;42.25;;;;;19.32;51.06;100657.16;5088612;28;8852;-79
2022/10/28 00:04:01;;;;;;;;;48.25;41.00;;;;;19.31;50.54;100658.94;5068578;28;8882;-79
2022/10/28 00:06:33;;;;;;;;;46.25;37.00;;;;;19.31;50.97;100658.94;5068992;28;8858;-79
2022/10/28 00:09:02;;;;;;;;;45.75;39.00;;;;;19.24;50.99;100658.19;5069677;28;8930;-78
2022/10/28 00:11:35;;;;;;;;;45.00;38.25;;;;;19.24;50.74;100646.72;5035548;28;8862;-79
2022/10/28 00:14:06;;;;;;;;;47.25;39.25;;;;;19.24;50.78;100652.00;5083783;28;8891;-80
2022/10/28 00:16:36;;;;;;;;;49.50;41.25;;;;;19.14;51.36;100651.31;5051509;28;8869;-80
2022/10/28 00:19:07;;;;;;;;;47.00;38.50;;;;;19.02;51.79;100648.88;5051807;28;8866;-81
2022/10/28 00:21:39;;;;;;;;;48.25;40.50;;;;;18.87;52.28;100647.38;5068606;28;8885;-80
2022/10/28 00:24:09;;;;;;;;;49.75;42.25;;;;;18.64;53.21;100645.09;5068081;28;8888;-79
2022/10/28 00:26:41;;;;;;;;;49.25;40.00;;;;;18.36;54.33;100647.28;5046524;28;8854;-79
2022/10/28 00:29:11;;;;;;;;;39.75;33.25;;;;;18.19;55.03;100648.38;5082266;28;8862;-80
2022/10/28 00:31:41;;;;;;;;;52.00;42.75;;;;;18.21;54.69;100643.97;5086664;28;9000;-80
2022/10/28 00:34:12;;;;;;;;;51.25;43.75;;;;;18.30;54.56;100649.13;5090771;28;8875;-79
2022/10/28 00:36:44;;;;;;;;;53.00;44.00;;;;;18.34;54.75;100642.03;5089519;28;8855;-78
2022/10/28 00:39:14;;;;;;;;;53.25;43.50;;;;;18.34;54.88;100641.16;5090328;28;8858;-79
2022/10/28 00:41:44;;;;;;;;;56.50;45.00;;;;;18.45;54.01;100639.19;5088449;28;8878;-81
2022/10/28 00:44:47;;;;;;;;;49.25;42.00;;;;;18.37;54.80;100636.66;5086833;28;8928;-80
2022/10/28 00:47:24;;;;;;;;;49.00;41.50;;;;;18.29;54.74;100639.44;5086772;28;8859;-80
2022/10/28 00:50:05;;;;;;;;;43.50;38.25;;;;;18.30;54.65;100643.84;5099785;28;8866;-81
2022/10/28 00:52:35;;;;;;;;;49.25;41.25;;;;;18.36;54.37;100639.38;5054987;28;8920;-82
2022/10/28 00:55:05;;;;;;;;;50.00;41.00;;;;;18.35;54.30;100633.19;5055791;28;8921;-80
2022/10/28 00:57:37;;;;;;;;;26.25;25.50;;;;;18.40;54.04;100634.00;5086622;28;8886;-81
2022/10/28 01:00:08;;;;;;;;;49.50;41.50;;;;;18.31;54.40;100635.00;5070344;28;8921;-80
2022/10/28 01:02:46;;;;;;;;;52.50;42.25;;;;;18.20;55.04;100638.69;5088392;28;8852;-81
2022/10/28 01:05:19;;;;;;;;;50.00;41.25;;;;;18.27;54.59;100635.94;5069952;28;8844;-79
2022/10/28 01:07:51;;;;;;;;;52.50;43.00;;;;;18.37;54.17;100636.66;5118863;28;8862;-78
2022/10/28 01:10:26;;;;;;;;;44.25;37.75;;;;;18.29;54.59;100636.78;5073107;28;8858;-79
2022/10/28 01:13:11;;;;;;;;;51.25;42.75;;;;;18.39;54.14;100629.63;5124197;28;8856;-80
2022/10/28 01:15:48;;;;;;;;;46.50;39.50;;;;;18.38;54.17;100634.94;5071543;28;8938;-80
2022/10/28 01:18:25;;;;;;;;;47.75;40.50;;;;;18.35;54.27;100634.97;5088258;28;8836;-79
2022/10/28 01:21:28;;;;;;;;;51.25;42.25;;;;;18.36;53.96;100623.53;5069750;28;9600;-79
2022/10/28 01:24:10;;;;;;;;;46.50;39.50;;;;;18.29;54.38;100628.00;4994032;28;8874;-79
2022/10/28 01:27:04;;;;;;;;;46.25;40.25;;;;;18.38;53.70;100625.22;4978363;28;8860;-80
2022/10/28 01:29:48;;;;;;;;;48.00;41.00;;;;;18.26;54.36;100626.28;5008153;28;8875;-79
2022/10/28 01:32:30;;;;;;;;;47.50;40.00;;;;;18.35;53.92;100619.13;5025058;28;8870;-79
2022/10/28 01:35:10;;;;;;;;;50.50;41.00;;;;;18.40;53.60;100614.66;5024705;28;8879;-80
2022/10/28 01:37:49;;;;;;;;;49.00;39.50;;;;;18.43;53.52;100609.28;4976798;28;8840;-79
2022/10/28 01:40:24;;;;;;;;;51.00;42.00;;;;;18.48;53.23;100613.59;5024627;28;8856;-79
2022/10/28 01:42:59;;;;;;;;;51.75;41.25;;;;;18.51;53.28;100612.72;5024054;28;8934;-79
2022/10/28 01:45:35;;;;;;;;;49.75;42.00;;;;;18.59;53.18;100609.94;4990654;28;8894;-80
2022/10/28 01:48:10;;;;;;;;;48.50;40.25;;;;;18.45;53.35;100611.03;5008429;28;8863;-80
2022/10/28 01:50:44;;;;;;;;;45.00;37.50;;;;;18.46;53.23;100611.91;5025069;28;8852;-79
2022/10/28 01:53:19;;;;;;;;;49.25;41.50;;;;;18.48;53.28;100607.47;5024674;28;9006;-79
2022/10/28 01:55:51;;;;;;;;;53.50;44.00;;;;;18.51;53.19;100605.66;4994782;28;8907;-79
2022/10/28 01:58:26;;;;;;;;;50.00;41.75;;;;;18.58;53.09;100609.06;4991504;28;8883;-78
2022/10/28 02:00:56;;;;;;;;;50.25;43.00;;;;;18.56;52.69;100605.56;5043046;28;8909;-80
2022/10/28 02:03:28;;;;;;;;;48.00;40.00;;;;;18.45;53.30;100604.84;5086425;28;8900;-78
2022/10/28 02:06:00;;;;;;;;;47.50;39.00;;;;;18.48;53.22;100603.03;5070592;28;8842;-79
2022/10/28 02:08:43;;;;;;;;;48.75;41.00;;;;;18.54;52.82;100599.44;5056984;28;8830;-80
2022/10/28 02:11:25;;;;;;;;;51.50;43.25;;;;;18.59;53.11;100600.22;5087151;28;8855;-79
2022/10/28 02:14:02;;;;;;;;;51.50;43.75;;;;;18.64;52.58;100598.41;5092063;28;8856;-78
2022/10/28 02:16:40;;;;;;;;;49.75;40.75;;;;;18.63;52.67;100599.28;5091059;28;8863;-79
2022/10/28 02:19:18;;;;;;;;;49.50;41.00;;;;;18.65;52.63;100596.63;5091103;28;8863;-80
2022/10/28 02:21:55;;;;;;;;;52.50;42.25;;;;;18.62;52.64;100592.28;5090954;28;8904;-80
2022/10/28 02:24:38;;;;;;;;;48.25;41.25;;;;;18.66;52.57;100598.38;5070965;28;8952;-78
2022/10/28 02:27:12;;;;;;;;;48.75;40.50;;;;;18.59;53.12;100597.59;5087557;28;8888;-80
2022/10/28 02:29:49;;;;;;;;;52.00;43.25;;;;;18.65;52.57;100591.34;5103727;27;8850;-81
2022/10/28 02:32:20;;;;;;;;;54.50;42.25;;;;;18.67;52.55;100592.19;5054112;28;8988;-81
2022/10/28 02:34:56;;;;;;;;;52.00;42.25;;;;;18.69;52.67;100598.31;5053850;28;8854;-79
2022/10/28 02:37:29;;;;;;;;;56.75;45.25;;;;;18.56;53.07;100589.72;5071920;28;8834;-79
2022/10/28 02:40:02;;;;;;;;;51.75;42.50;;;;;18.47;53.54;100589.88;5104607;28;8839;-78
2022/10/28 02:42:35;;;;;;;;;54.00;44.00;;;;;18.53;53.39;100589.78;5019291;28;8884;-80
2022/10/28 02:45:09;;;;;;;;;52.50;43.25;;;;;18.54;53.36;100582.72;5071482;28;8846;-78
2022/10/28 02:47:43;;;;;;;;;51.00;43.00;;;;;18.57;53.10;100585.31;5070492;28;8838;-80
2022/10/28 02:50:18;;;;;;;;;54.50;45.75;;;;;18.65;52.92;100586.91;5072168;28;9660;-79
2022/10/28 02:52:51;;;;;;;;;50.50;42.00;;;;;18.68;52.77;100589.50;5036397;28;8865;-79
2022/10/28 02:55:24;;;;;;;;;51.00;42.75;;;;;18.65;52.42;100586.91;5072028;28;8875;-79
2022/10/28 02:57:52;;;;;;;;;52.75;44.00;;;;;18.64;52.65;100594.91;5051580;28;8839;-81
2022/10/28 03:00:23;;;;;;;;;54.75;44.00;;;;;18.64;52.33;100587.84;5068901;28;8890;-80
2022/10/28 03:02:52;;;;;;;;;57.75;46.50;;;;;18.62;52.69;100591.38;5069764;28;8859;-78
2022/10/28 03:05:22;;;;;;;;;45.50;37.75;;;;;18.60;52.74;100594.06;5062942;28;8914;-80
2022/10/28 03:07:50;;;;;;;;;52.25;44.50;;;;;18.57;52.68;100586.19;5081551;28;8944;-78
2022/10/28 03:10:19;;;;;;;;;50.25;41.75;;;;;18.58;52.46;100592.31;5061727;28;9737;-79
2022/10/28 03:12:48;;;;;;;;;54.00;45.00;;;;;18.60;52.62;100596.72;5043050;28;8935;-79
2022/10/28 03:15:17;;;;;;;;;51.00;43.00;;;;;18.57;52.80;100601.16;5069971;28;8844;-80
2022/10/28 03:17:46;;;;;;;;;49.00;41.25;;;;;18.55;52.83;100600.31;5069412;28;8952;-79
2022/10/28 03:20:15;;;;;;;;;52.75;43.50;;;;;18.55;52.78;100606.47;5054563;28;9034;-79
2022/10/28 03:22:45;;;;;;;;;56.50;45.25;;;;;18.55;52.72;100598.56;5053575;28;8863;-82
2022/10/28 03:25:14;;;;;;;;;52.00;44.25;;;;;18.56;52.65;100602.06;5068120;28;8895;-80
2022/10/28 03:27:42;;;;;;;;;49.25;41.75;;;;;18.48;52.94;100605.69;5068093;28;8840;-81
2022/10/28 03:30:13;;;;;;;;;55.00;45.25;;;;;18.44;52.91;100598.72;5103428;28;8850;-80
2022/10/28 03:32:42;;;;;;;;;55.25;44.50;;;;;18.48;52.79;100602.19;5070792;28;9608;-80
2022/10/28 03:35:11;;;;;;;;;55.25;45.25;;;;;18.48;52.73;100600.41;5068510;28;8850;-80
2022/10/28 03:37:42;;;;;;;;;55.25;45.50;;;;;18.51;52.62;100596.88;5103187;28;8846;-80
2022/10/28 03:40:13;;;;;;;;;55.75;46.00;;;;;18.54;52.51;100606.50;5070618;28;9627;-80
2022/10/28 03:42:41;;;;;;;;;52.75;44.25;;;;;18.52;52.55;100598.59;5070963;28;8870;-79
2022/10/28 03:45:11;;;;;;;;;64.75;51.00;;;;;18.53;52.41;100604.75;5068969;28;8866;-79
2022/10/28 03:47:40;;;;;;;;;61.00;50.00;;;;;18.51;52.43;100596.88;5070742;28;8870;-79
2022/10/28 03:50:09;;;;;;;;;53.25;44.00;;;;;18.47;52.79;100601.31;5047439;28;9111;-78
2022/10/28 03:52:38;;;;;;;;;58.00;47.50;;;;;18.48;52.71;100599.53;5041835;28;8844;-81
2022/10/28 03:55:07;;;;;;;;;57.25;47.50;;;;;18.46;52.89;100604.84;5047886;28;8919;-80
2022/10/28 03:57:37;;;;;;;;;57.00;46.25;;;;;18.43;53.06;100604.00;5047746;28;8952;-81
2022/10/28 04:00:07;;;;;;;;;57.50;45.25;;;;;18.40;52.93;100602.31;5048265;28;8858;-80
2022/10/28 04:02:41;;;;;;;;;54.75;45.00;;;;;18.39;53.21;100607.59;5064321;28;8865;-79
2022/10/28 04:05:10;;;;;;;;;57.25;46.00;;;;;18.37;53.45;100612.03;5031181;28;9675;-80
2022/10/28 04:07:38;;;;;;;;;57.25;46.00;;;;;18.34;53.67;100606.81;5046499;28;8878;-78
2022/10/28 04:10:07;;;;;;;;;85.25;77.50;;;;;18.31;53.28;100613.88;5047535;28;8858;-81
2022/10/28 04:12:37;;;;;;;;;69.67;53.67;;;;;18.29;53.82;100607.75;5047326;28;11194;-80
2022/10/28 04:15:07;;;;;;;;;56.25;46.25;;;;;18.28;53.58;100615.72;5046909;28;9471;-81
2022/10/28 04:17:36;;;;;;;;;54.75;46.00;;;;;18.27;53.60;100613.97;5031079;28;8860;-80
2022/10/28 04:20:05;;;;;;;;;1.75;0.00;;;;;18.26;53.56;100620.13;5030718;28;8848;-81
2022/10/28 04:22:33;;;;;;;;;56.50;46.00;;;;;18.26;53.64;100610.44;5053805;28;8850;-80
2022/10/28 04:25:03;;;;;;;;;53.75;45.50;;;;;18.25;53.62;100613.97;5066868;28;8853;-80
2022/10/28 04:27:31;;;;;;;;;58.00;46.25;;;;;18.22;53.64;100613.13;5084488;28;8884;-78
2022/10/28 04:30:01;;;;;;;;;57.25;46.50;;;;;18.22;54.18;100608.75;5072572;28;9667;-79
2022/10/28 04:32:30;;;;;;;;;66.33;51.33;;;;;18.22;53.78;100608.75;5073685;28;8874;-80
2022/10/28 04:34:58;;;;;;;;;61.00;50.67;;;;;18.18;54.16;100611.44;5071730;28;9002;-81
2022/10/28 04:37:27;;;;;;;;;32.00;30.25;;;;;18.14;54.43;100607.97;5069988;28;9235;-79
2022/10/28 04:39:55;;;;;;;;;59.00;48.00;;;;;18.14;54.44;100612.38;5077425;28;8856;-79
2022/10/28 04:42:24;;;;;;;;;56.25;46.25;;;;;18.08;54.42;100603.66;5097345;28;8855;-80
2022/10/28 04:44:53;;;;;;;;;54.50;44.50;;;;;18.07;54.52;100603.69;5098781;28;8931;-78
2022/10/28 04:47:23;;;;;;;;;57.50;47.25;;;;;18.05;54.52;100606.34;5089448;28;8843;-79
2022/10/28 04:49:51;;;;;;;;;64.33;52.00;;;;;18.03;54.77;100605.47;5088329;28;8832;-79
2022/10/28 04:52:20;;;;;;;;;60.67;48.67;;;;;18.04;54.60;100603.75;5103520;28;9056;-78
2022/10/28 04:54:48;;;;;;;;;56.50;47.25;;;;;18.03;54.66;100605.47;5084907;28;8941;-80
2022/10/28 04:57:17;;;;;;;;;58.00;48.00;;;;;18.02;54.86;100600.25;5068226;28;8864;-79
2022/10/28 04:59:46;;;;;;;;;56.25;46.25;;;;;18.03;55.02;100609.91;5070722;28;8866;-78
2022/10/28 05:02:15;;;;;;;;;56.75;46.50;;;;;18.01;54.86;100606.41;5080512;28;8902;-78
2022/10/28 05:04:45;;;;;;;;;55.50;46.25;;;;;17.92;55.22;100603.00;5089322;28;8866;-80
2022/10/28 05:07:13;;;;;;;;;60.00;47.75;;;;;17.91;55.30;100610.94;5085706;28;8856;-79
2022/10/28 05:09:45;;;;;;;;;56.25;46.75;;;;;17.93;55.23;100612.66;5089433;28;8847;-78
2022/10/28 05:12:13;;;;;;;;;60.00;49.00;;;;;17.94;55.15;100610.91;5089987;28;8844;-78
2022/10/28 05:14:42;;;;;;;;;62.25;50.25;;;;;17.96;54.84;100613.50;5099121;28;9558;-77
2022/10/28 05:17:11;;;;;;;;;61.00;50.00;;;;;17.96;54.54;100613.50;5087435;28;8877;-78
2022/10/28 05:19:41;;;;;;;;;60.50;48.25;;;;;17.98;54.58;100615.25;5069354;28;8907;-79
2022/10/28 05:22:11;;;;;;;;;59.25;49.00;;;;;18.02;54.33;100618.72;5069222;28;8864;-79
2022/10/28 05:24:39;;;;;;;;;63.00;51.00;;;;;17.99;54.75;100624.91;5081249;28;8864;-79
2022/10/28 05:27:08;;;;;;;;;62.33;50.33;;;;;18.01;54.45;100622.25;5081407;28;8851;-78
2022/10/28 05:29:36;;;;;;;;;66.00;53.67;;;;;18.03;54.55;100621.31;5119223;28;8935;-78
2022/10/28 05:32:05;;;;;;;;;63.00;52.00;;;;;18.05;54.69;100624.84;5058747;28;9254;-79
2022/10/28 05:34:35;;;;;;;;;62.75;50.25;;;;;18.05;54.67;100629.22;5084909;28;8919;-80
2022/10/28 05:37:03;;;;;;;;;59.00;48.25;;;;;18.06;54.60;100626.56;5067058;28;8855;-79
2022/10/28 05:39:33;;;;;;;;;70.00;54.25;;;;;18.10;54.65;100637.97;5068209;28;8853;-78
2022/10/28 05:42:02;;;;;;;;;76.75;67.75;;;;;18.10;54.56;100627.41;5040061;28;10454;-78
2022/10/28 05:44:31;;;;;;;;;75.50;62.50;;;;;18.10;54.56;100632.69;5070860;28;10478;-78
2022/10/28 05:46:59;;;;;;;;;64.67;52.33;;;;;18.09;54.51;100633.56;5076724;28;10305;-77
2022/10/28 05:49:28;;;;;;;;;62.67;50.00;;;;;18.11;54.60;100630.03;5076956;28;9166;-80
2022/10/28 05:51:57;;;;;;;;;61.00;49.67;;;;;18.12;54.60;100637.03;5072448;28;9011;-78
2022/10/28 05:54:26;;;;;;;;;60.50;48.00;;;;;18.16;54.78;100635.22;5053346;28;9096;-77
2022/10/28 05:56:56;;;;;;;;;64.33;51.00;;;;;18.18;54.70;100643.13;5053896;28;10314;-80
2022/10/28 05:59:25;;;;;;;;;60.50;49.50;;;;;18.22;54.59;100640.44;5068681;28;8954;-79
2022/10/28 06:01:54;;;;;;;;;62.67;50.00;;;;;18.26;54.79;100649.16;5087258;28;8998;-78
2022/10/28 06:04:23;;;;;;;;;66.33;53.33;;;;;18.23;55.06;100647.44;5071999;28;9263;-80
2022/10/28 06:06:54;;;;;;;;;65.67;52.00;;;;;18.28;55.73;100650.03;5068596;28;9226;-77
2022/10/28 06:09:23;;;;;;;;;67.33;53.33;;;;;18.31;55.62;100649.97;5040306;28;9092;-80
2022/10/28 06:11:51;;;;;;;;;66.00;53.33;;;;;18.31;56.00;100649.97;5016140;28;9216;-80
2022/10/28 06:14:22;;;;;;;;;70.00;56.00;;;;;18.37;56.22;100649.00;5030201;28;9384;-78
2022/10/28 06:16:50;;;;;;;;;69.00;55.00;;;;;18.44;56.24;100648.91;5011383;28;9339;-77
2022/10/28 06:19:18;;;;;;;;;67.00;54.00;;;;;18.49;56.44;100652.34;5047030;28;9622;-79
2022/10/28 06:21:47;;;;;;;;;69.33;55.00;;;;;18.56;56.64;100657.53;5044188;28;9175;-76
2022/10/28 06:24:16;;;;;;;;;68.00;53.33;;;;;18.61;56.35;100656.56;5036634;28;9240;-81
2022/10/28 06:26:44;;;;;;;;;67.00;54.00;;;;;18.70;56.23;100656.41;5043848;28;9232;-78
2022/10/28 06:29:13;;;;;;;;;67.33;54.67;;;;;18.76;56.08;100654.59;5028771;28;9294;-79
2022/10/28 06:31:43;;;;;;;;;70.00;57.00;;;;;18.83;55.89;100666.84;5020975;28;9353;-80
2022/10/28 06:34:12;;;;;;;;;69.67;56.33;;;;;18.90;55.83;100663.16;4995177;28;9664;-78
2022/10/28 06:36:41;;;;;;;;;69.33;54.00;;;;;19.00;55.83;100671.84;5028839;28;10178;-82
2022/10/28 06:39:10;;;;;;;;;73.25;58.75;;;;;19.08;55.17;100670.78;5012666;28;10158;-81
2022/10/28 06:41:38;;;;;;;;;70.75;57.75;;;;;19.16;54.98;100675.06;5018206;28;9706;-78
2022/10/28 06:44:07;;;;;;;;;73.50;63.50;;;;;19.15;54.99;100675.97;5069802;28;9768;-79
2022/10/28 06:46:36;;;;;;;;;71.00;58.75;;;;;19.19;54.84;100680.31;5082098;28;9821;-79
2022/10/28 06:49:07;;;;;;;;;72.00;58.75;;;;;19.28;54.52;100680.13;5087618;28;9778;-78
2022/10/28 06:51:36;;;;;;;;;73.50;63.50;;;;;19.29;54.48;100674.81;5069162;28;9716;-77
2022/10/28 06:54:05;;;;;;;;;77.75;66.75;;;;;19.41;54.47;100683.44;5069640;28;10061;-79
2022/10/28 06:56:33;;;;;;;;;72.75;61.00;;;;;19.48;54.30;100680.63;5020786;28;9867;-78
2022/10/28 06:59:02;;;;;;;;;77.75;67.25;;;;;19.53;53.98;100679.66;5053527;28;9953;-76
2022/10/28 07:01:31;;;;;;;;;76.75;67.00;;;;;19.63;53.86;100678.59;5053179;28;10459;-77
2022/10/28 07:04:00;;;;;;;;;74.00;63.00;;;;;19.69;53.79;100675.84;5092310;28;10247;-79
2022/10/28 07:06:30;;;;;;;;;69.00;56.00;;;;;19.80;53.39;100687.09;5093788;28;10367;-79
2022/10/28 07:08:58;;;;;;;;;70.00;58.00;;;;;19.93;53.21;100685.09;5060383;28;9527;-81
2022/10/28 07:11:28;;;;;;;;;71.00;58.00;;;;;20.05;52.88;100683.94;5050796;28;9584;-81
2022/10/28 07:13:56;;;;;;;;;73.00;61.75;;;;;20.14;52.15;100688.19;5019583;28;9760;-78
2022/10/28 07:16:25;;;;;;;;;74.00;65.00;;;;;20.25;52.29;100686.19;5084672;28;9751;-78
2022/10/28 07:18:53;;;;;;;;;71.00;59.25;;;;;20.29;52.33;100690.50;5070704;28;9923;-78
2022/10/28 07:21:27;;;;;;;;;72.00;59.75;;;;;20.43;52.20;100693.72;5086432;28;9878;-77
2022/10/28 07:23:57;;;;;;;;;74.25;64.50;;;;;20.53;52.11;100686.44;5070678;28;9890;-76
2022/10/28 07:26:26;;;;;;;;;73.25;63.50;;;;;20.63;51.83;100692.41;5087749;28;10342;-81
2022/10/28 07:28:55;;;;;;;;;72.50;63.00;;;;;20.68;51.66;100693.19;5069406;28;10154;-80
2022/10/28 07:31:23;;;;;;;;;75.50;66.50;;;;;20.72;51.54;100693.94;5087413;28;10319;-79
2022/10/28 07:33:53;;;;;;;;;76.00;68.50;;;;;20.77;51.21;100684.97;5113509;28;10443;-79
2022/10/28 07:36:24;;;;;;;;;77.25;73.00;;;;;20.81;50.89;100689.31;5082726;28;10645;-77
2022/10/28 07:38:53;;;;;;;;;75.50;69.75;;;;;20.86;50.79;100688.34;5053943;28;10456;-81
2022/10/28 07:41:24;;;;;;;;;77.75;70.75;;;;;20.96;50.53;100684.53;5086597;28;10463;-79
2022/10/28 07:43:52;;;;;;;;;76.50;69.25;;;;;21.00;50.59;100688.84;5062193;28;10940;-76
2022/10/28 07:46:21;;;;;;;;;76.00;68.25;;;;;21.09;50.14;100685.97;5088597;28;11634;-81
2022/10/28 07:48:49;;;;;;;;;76.25;67.50;;;;;21.21;50.08;100685.66;5070453;28;10910;-80
2022/10/28 07:51:18;;;;;;;;;75.25;67.25;;;;;21.35;49.53;100685.28;5087358;28;10902;-78
2022/10/28 07:53:47;;;;;;;;;74.50;66.75;;;;;21.40;49.49;100679.88;5086157;28;10874;-80
2022/10/28 07:56:15;;;;;;;;;77.25;70.25;;;;;21.52;49.18;100679.53;5078729;28;10589;-79
2022/10/28 07:58:45;;;;;;;;;75.25;66.00;;;;;21.65;48.76;100684.53;5082958;28;10631;-80
2022/10/28 08:01:17;;;;;;;;;77.00;69.25;;;;;21.75;48.86;100681.56;5072528;28;10724;-77
2022/10/28 08:03:47;;;;;;;;;77.00;70.25;;;;;21.76;48.29;100683.31;5051690;28;10858;-81
2022/10/28 08:06:18;;;;;;;;;74.00;66.25;;;;;21.82;48.45;100686.72;5049697;28;10593;-76
2022/10/28 08:08:48;;;;;;;;;77.00;69.00;;;;;21.84;48.35;100680.44;5065358;28;10446;-78
2022/10/28 08:11:21;;;;;;;;;76.25;70.00;;;;;21.93;48.56;100684.63;5046211;28;10561;-79
2022/10/28 08:13:52;;;;;;;;;72.00;64.50;;;;;22.06;48.19;100682.44;5065726;28;10730;-78
2022/10/28 08:16:21;;;;;;;;;82.25;75.00;;;;;22.11;47.92;100683.19;5048973;28;10677;-76
2022/10/28 08:18:51;;;;;;;;;79.25;70.75;;;;;22.20;47.82;100683.78;4999513;28;10551;-79
2022/10/28 08:21:20;;;;;;;;;78.50;70.25;;;;;22.27;48.00;100678.28;5050995;28;10695;-77
2022/10/28 08:23:49;;;;;;;;;79.75;71.25;;;;;22.36;47.96;100681.56;5070883;28;10429;-80
2022/10/28 08:26:17;;;;;;;;;79.75;70.50;;;;;22.38;47.79;100679.72;5067454;28;10430;-78
2022/10/28 08:28:46;;;;;;;;;82.00;72.75;;;;;22.45;47.59;100675.06;5050356;28;10540;-80
2022/10/28 08:31:16;;;;;;;;;81.75;69.50;;;;;22.45;47.54;100675.06;5081549;28;10710;-78
2022/10/28 08:33:45;;;;;;;;;76.25;64.75;;;;;22.51;47.62;100679.31;5065352;28;10448;-80
2022/10/28 08:36:16;;;;;;;;;80.25;74.00;;;;;22.61;47.71;100675.47;5080689;28;10441;-82
2022/10/28 08:38:45;;;;;;;;;80.00;70.75;;;;;22.68;47.49;100679.66;5068413;28;10526;-79
2022/10/28 08:41:24;;;;;;;;;75.50;65.25;;;;;22.75;47.50;100675.88;5079699;28;11158;-79
2022/10/28 08:44:08;;;;;;;;;78.25;69.00;;;;;22.82;47.24;100681.00;5086527;28;10331;-79
2022/10/28 08:46:54;;;;;;;;;80.25;72.50;;;;;22.05;48.82;100686.03;5086375;28;10566;-77
2022/10/28 08:49:24;;;;;;;;;79.75;72.00;;;;;22.21;48.83;100684.63;5072228;28;10532;-76
2022/10/28 08:51:57;;;;;;;;;76.50;67.25;;;;;22.38;48.45;100685.03;5086084;28;11029;-74
2022/10/28 08:54:32;;;;;;;;;76.25;64.25;;;;;22.50;48.10;100682.91;5102610;28;10313;-75
2022/10/28 08:57:05;;;;;;;;;77.75;66.00;;;;;22.61;47.93;100672.81;5088289;28;10371;-76
2022/10/28 08:59:38;;;;;;;;;80.25;72.50;;;;;22.66;47.54;100675.31;5072139;28;10450;-82
2022/10/28 09:02:21;;;;;;;;;80.25;71.50;;;;;22.77;47.79;100678.50;5097387;28;11310;-80
2022/10/28 09:04:54;;;;;;;;;73.75;61.75;;;;;22.85;47.70;100680.88;5086667;28;10354;-79
2022/10/28 09:07:25;;;;;;;;;80.50;71.75;;;;;23.01;47.20;100676.81;5086596;28;10235;-83
2022/10/28 09:09:55;;;;;;;;;78.50;69.00;;;;;23.09;47.18;100679.25;5070393;28;10183;-77
2022/10/28 09:12:38;;;;;;;;;80.25;68.25;;;;;23.21;46.84;100683.25;5051884;28;10297;-81
2022/10/28 09:15:22;;;;;;;;;80.50;69.00;;;;;23.28;46.90;100680.31;5071343;28;10120;-79
2022/10/28 09:18:00;;;;;;;;;70.50;56.75;;;;;23.27;46.58;100683.03;5005082;28;10262;-78
2022/10/28 09:20:42;;;;;;;;;77.50;67.00;;;;;23.24;46.60;100694.66;5063142;28;10035;-83
2022/10/28 09:23:20;;;;;;;;;75.00;61.00;;;;;23.20;46.50;100690.38;5090722;28;9978;-81
2022/10/28 09:25:59;;;;;;;;;76.25;64.00;;;;;23.21;46.68;100688.59;5084506;28;10011;-81
2022/10/28 09:28:41;;;;;;;;;76.75;64.25;;;;;23.28;46.57;100687.44;5075735;28;10113;-80
2022/10/28 09:31:18;;;;;;;;;72.00;60.75;;;;;23.26;46.71;100690.16;5106341;28;9869;-81
2022/10/28 09:34:02;;;;;;;;;72.75;59.50;;;;;23.27;46.72;100683.94;5071157;28;9719;-79
2022/10/28 09:36:36;;;;;;;;;70.25;57.75;;;;;23.37;46.32;100679.16;5072912;28;10659;-82
2022/10/28 09:39:07;;;;;;;;;77.25;63.50;;;;;23.39;46.29;100679.97;5055666;28;10524;-80
2022/10/28 09:41:39;;;;;;;;;75.75;63.25;;;;;23.42;46.13;100677.19;5088803;28;10061;-77
2022/10/28 09:44:15;;;;;;;;;73.50;63.00;;;;;23.51;46.01;100675.97;5090719;28;9800;-81
2022/10/28 09:46:46;;;;;;;;;74.50;61.00;;;;;23.35;46.33;100676.53;5091213;28;9816;-82
2022/10/28 09:49:20;;;;;;;;;70.75;60.00;;;;;23.48;46.09;100674.31;5071569;28;9702;-79
2022/10/28 09:51:55;;;;;;;;;71.00;57.50;;;;;23.52;45.84;100678.59;5097614;28;10546;-80
2022/10/28 09:54:32;;;;;;;;;72.25;58.50;;;;;23.55;45.95;100675.84;5077936;28;9865;-79
2022/10/28 09:57:02;;;;;;;;;71.50;59.50;;;;;23.52;46.41;100678.59;5073718;28;9920;-83
2022/10/28 09:59:32;;;;;;;;;71.75;57.75;;;;;23.61;46.04;100674.75;5091756;28;9704;-83
2022/10/28 10:02:00;;;;;;;;;71.50;59.25;;;;;23.71;45.78;100669.94;5073811;28;10560;-81
2022/10/28 10:04:31;;;;;;;;;70.75;57.75;;;;;23.71;45.75;100661.94;5090880;28;9760;-83
2022/10/28 10:07:08;;;;;;;;;73.75;64.50;;;;;23.79;45.62;100667.03;5071662;28;9613;-80
2022/10/28 10:09:39;;;;;;;;;70.75;57.50;;;;;23.83;45.79;100661.50;5053349;28;9882;-83
2022/10/28 10:12:09;;;;;;;;;73.00;61.25;;;;;23.89;45.69;100666.63;5072125;28;9553;-78
2022/10/28 10:14:43;;;;;;;;;70.00;56.33;;;;;24.00;45.71;100663.53;5088176;28;9873;-82
2022/10/28 10:17:16;;;;;;;;;66.00;53.00;;;;;24.02;45.52;100660.81;5052006;28;10093;-83
2022/10/28 10:20:14;;;;;;;;;63.50;50.75;;;;;24.24;44.93;100660.84;5054698;28;9096;-82
2022/10/28 10:22:44;;;;;;;;;65.33;51.33;;;;;24.18;45.09;100658.41;4962851;28;8878;-81
2022/10/28 10:25:25;;;;;;;;;65.00;52.00;;;;;24.30;44.91;100655.28;4973122;28;9293;-83
2022/10/28 10:27:57;;;;;;;;;64.67;52.33;;;;;24.26;45.09;100653.66;4954969;28;9014;-80
2022/10/28 10:30:31;;;;;;;;;64.33;51.33;;;;;24.40;45.44;100653.09;4973290;28;9007;-83
2022/10/28 10:33:01;;;;;;;;;62.33;51.67;;;;;24.32;44.66;100650.75;4974280;28;8932;-80
2022/10/28 10:35:33;;;;;;;;;62.75;48.75;;;;;24.46;44.72;100648.41;4990192;28;9031;-81
2022/10/28 10:38:04;;;;;;;;;62.75;49.25;;;;;24.50;44.25;100655.34;4974339;28;8852;-83
2022/10/28 10:40:35;;;;;;;;;63.00;50.00;;;;;24.48;44.39;100653.66;4973387;28;8864;-82
2022/10/28 10:43:21;;;;;;;;;60.25;48.00;;;;;24.59;44.55;100648.78;4992530;28;8975;-78
2022/10/28 10:46:00;;;;;;;;;64.00;51.00;;;;;24.66;44.05;100647.59;5019388;28;8847;-78
2022/10/28 10:48:31;;;;;;;;;59.25;48.00;;;;;24.58;44.61;100641.72;5022508;28;8860;-81
2022/10/28 10:51:06;;;;;;;;;64.00;51.00;;;;;24.80;44.14;100640.81;5010810;28;8868;-80
2022/10/28 10:53:36;;;;;;;;;62.67;50.67;;;;;24.87;43.53;100639.63;4951930;28;8891;-81
2022/10/28 10:56:09;;;;;;;;;55.75;46.00;;;;;24.98;43.58;100634.72;4936913;28;9237;-81
2022/10/28 10:58:47;;;;;;;;;55.00;46.00;;;;;24.92;43.24;100642.13;5009737;28;8881;-78
2022/10/28 11:01:21;;;;;;;;;57.00;47.00;;;;;25.08;43.27;100637.84;5046714;28;9831;-79
2022/10/28 11:03:54;;;;;;;;;55.50;45.25;;;;;25.23;43.31;100628.34;5046344;28;8967;-81
2022/10/28 11:06:30;;;;;;;;;57.25;46.00;;;;;25.20;42.81;100626.66;5028502;28;8869;-80
2022/10/28 11:09:01;;;;;;;;;53.75;42.25;;;;;25.33;43.08;100624.34;5028337;28;8900;-84
2022/10/28 11:11:35;;;;;;;;;54.00;44.50;;;;;25.50;42.58;100631.59;5046109;28;8933;-83
2022/10/28 11:14:07;;;;;;;;;56.00;46.75;;;;;25.42;42.08;100623.91;5006995;28;8985;-81
2022/10/28 11:16:49;;;;;;;;;55.50;45.25;;;;;25.32;42.45;100625.28;4985610;28;8870;-80
2022/10/28 11:19:21;;;;;;;;;57.75;46.50;;;;;25.35;42.57;100626.91;4974833;28;8874;-80
2022/10/28 11:22:03;;;;;;;;;54.25;45.75;;;;;25.29;43.04;100623.59;5006841;28;8989;-84
2022/10/28 11:24:48;;;;;;;;;50.75;42.00;;;;;25.51;42.77;100614.63;5006306;28;8955;-80
2022/10/28 11:27:34;;;;;;;;;48.50;40.00;;;;;25.63;41.85;100619.41;5030326;28;8940;-79
2022/10/28 11:30:03;;;;;;;;;46.75;36.50;;;;;25.66;41.79;100618.41;5058541;28;8836;-78
2022/10/28 11:32:52;;;;;;;;;52.75;43.75;;;;;24.94;42.74;100618.91;5047976;28;8858;-79
2022/10/28 11:35:57;;;;;;;;;43.25;35.75;;;;;25.18;42.84;100609.84;5042484;28;8880;-78
2022/10/28 11:38:54;;;;;;;;;41.75;35.75;;;;;25.22;42.43;100608.75;5067806;28;8848;-78